Time,TemperatureF,DewpointF,PressureIn,WindDirection,WindDirectionDegrees,WindSpeedMPH,WindSpeedGustMPH,Humidity,HourlyPrecipIn,Conditions,Clouds,dailyrainin,SoftwareType,DateUTC
2013-02-12 00:02:00,43.0,39.9,30.26,South,180,0.0,0.0,89,0.00,,,0.00,meteohub,2013-02-12 08:02:00,
2013-02-12 00:07:00,42.6,39.9,30.26,South,180,0.0,0.0,90,0.00,,,0.00,meteohub,2013-02-12 08:07:00,
2013-02-12 00:12:00,42.4,39.7,30.26,South,180,0.0,0.0,90,0.00,,,0.00,meteohub,2013-02-12 08:12:00,
2013-02-12 00:17:00,42.3,39.6,30.26,South,180,0.0,0.0,90,0.00,,,0.00,meteohub,2013-02-12 08:17:00,
2013-02-12 00:22:00,42.4,40.3,30.26,SE,135,2.0,0.0,92,0.00,,,0.00,meteohub,2013-02-12 08:22:00,
2013-02-12 00:27:00,42.4,40.6,30.27,SE,135,2.0,3.0,93,0.00,,,0.00,meteohub,2013-02-12 08:27:00,
2013-02-12 00:32:00,42.4,40.6,30.27,SE,135,1.0,3.0,93,0.00,,,0.00,meteohub,2013-02-12 08:32:00,
2013-02-12 00:37:00,42.6,40.8,30.27,SE,135,0.0,3.0,93,0.00,,,0.00,meteohub,2013-02-12 08:37:00,
2013-02-12 00:42:00,42.8,41.0,30.27,SE,135,0.0,2.0,93,0.00,,,0.00,meteohub,2013-02-12 08:42:00,
2013-02-12 00:47:00,43.0,41.2,30.27,SE,135,0.0,2.0,93,0.00,,,0.00,meteohub,2013-02-12 08:47:00,
2013-02-12 00:52:00,42.8,40.6,30.27,SE,135,0.0,2.0,92,0.00,,,0.00,meteohub,2013-02-12 08:52:00,
2013-02-12 00:57:00,42.4,40.3,30.27,SE,135,0.0,2.0,92,0.00,,,0.00,meteohub,2013-02-12 08:57:00,
2013-02-12 01:02:00,42.1,39.9,30.27,SE,135,0.0,0.0,92,0.00,,,0.00,meteohub,2013-02-12 09:02:00,
2013-02-12 01:06:00,41.7,39.6,30.27,SE,135,0.0,0.0,92,0.00,,,0.00,meteohub,2013-02-12 09:06:00,
2013-02-12 01:11:00,41.7,39.9,30.27,SE,135,2.0,0.0,93,0.00,,,0.00,meteohub,2013-02-12 09:11:00,
2013-02-12 01:16:00,41.9,40.1,30.27,SE,135,0.0,2.0,93,0.00,,,0.00,meteohub,2013-02-12 09:16:00,
2013-02-12 01:22:00,41.9,40.1,30.27,SE,135,0.0,2.0,93,0.00,,,0.00,meteohub,2013-02-12 09:22:00,
2013-02-12 01:27:00,41.7,39.9,30.27,SE,135,0.0,2.0,93,0.00,,,0.00,meteohub,2013-02-12 09:27:00,
2013-02-12 01:32:00,41.7,39.9,30.27,SE,135,0.0,1.0,93,0.00,,,0.00,meteohub,2013-02-12 09:32:00,
2013-02-12 01:37:00,41.9,40.1,30.27,SE,135,1.0,0.0,93,0.00,,,0.00,meteohub,2013-02-12 09:37:00,
2013-02-12 01:42:00,42.1,40.3,30.27,SE,135,0.0,2.0,93,0.00,,,0.00,meteohub,2013-02-12 09:42:00,
2013-02-12 01:47:00,41.9,40.1,30.27,SE,135,0.0,2.0,93,0.00,,,0.00,meteohub,2013-02-12 09:47:00,
2013-02-12 01:52:00,41.9,40.1,30.27,SE,135,0.0,2.0,93,0.00,,,0.00,meteohub,2013-02-12 09:52:00,
2013-02-12 01:57:00,41.7,39.6,30.27,SE,135,0.0,2.0,92,0.00,,,0.00,meteohub,2013-02-12 09:57:00,
2013-02-12 02:02:00,41.2,39.0,30.27,SE,135,0.0,2.0,92,0.00,,,0.00,meteohub,2013-02-12 10:02:00,
2013-02-12 02:07:00,40.8,38.7,30.27,SE,135,0.0,2.0,92,0.00,,,0.00,meteohub,2013-02-12 10:07:00,
2013-02-12 02:12:00,40.5,38.3,30.27,SE,135,0.0,2.0,92,0.00,,,0.00,meteohub,2013-02-12 10:12:00,
2013-02-12 02:17:00,40.3,38.5,30.27,SE,135,2.0,2.0,93,0.00,,,0.00,meteohub,2013-02-12 10:17:00,
2013-02-12 02:22:00,40.5,38.8,30.27,SE,135,2.0,2.0,94,0.00,,,0.00,meteohub,2013-02-12 10:22:00,
2013-02-12 02:27:00,40.5,38.8,30.27,SE,135,0.0,2.0,94,0.00,,,0.00,meteohub,2013-02-12 10:27:00,
2013-02-12 02:32:00,40.3,38.5,30.27,SE,135,0.0,2.0,93,0.00,,,0.00,meteohub,2013-02-12 10:32:00,
2013-02-12 02:37:00,40.3,38.7,30.27,SE,135,2.0,2.0,94,0.00,,,0.00,meteohub,2013-02-12 10:37:00,
2013-02-12 02:42:00,40.5,38.8,30.27,SE,135,0.0,2.0,94,0.00,,,0.00,meteohub,2013-02-12 10:42:00,
2013-02-12 02:47:00,40.5,38.7,30.27,SE,135,0.0,2.0,93,0.00,,,0.00,meteohub,2013-02-12 10:47:00,
2013-02-12 02:52:00,40.3,38.5,30.27,SE,135,1.0,2.0,93,0.00,,,0.00,meteohub,2013-02-12 10:52:00,
2013-02-12 02:57:00,40.5,38.8,30.27,SE,135,0.0,1.0,94,0.00,,,0.00,meteohub,2013-02-12 10:57:00,
2013-02-12 03:02:00,40.5,38.7,30.27,SE,135,0.0,1.0,93,0.00,,,0.00,meteohub,2013-02-12 11:02:00,
2013-02-12 03:07:00,40.3,38.5,30.27,SE,135,0.0,1.0,93,0.00,,,0.00,meteohub,2013-02-12 11:07:00,
2013-02-12 03:12:00,39.9,38.1,30.27,SE,135,0.0,0.0,93,0.00,,,0.00,meteohub,2013-02-12 11:12:00,
2013-02-12 03:17:00,40.1,38.3,30.27,SE,135,2.0,0.0,93,0.00,,,0.00,meteohub,2013-02-12 11:17:00,
2013-02-12 03:22:00,40.3,38.5,30.27,SE,135,2.0,2.0,93,0.00,,,0.00,meteohub,2013-02-12 11:22:00,
2013-02-12 03:27:00,40.3,38.1,30.27,SE,135,2.0,2.0,92,0.00,,,0.00,meteohub,2013-02-12 11:27:00,
2013-02-12 03:32:00,40.1,37.9,30.27,SE,135,2.0,2.0,92,0.00,,,0.00,meteohub,2013-02-12 11:32:00,
2013-02-12 03:37:00,39.6,37.4,30.27,SE,135,0.0,2.0,92,0.00,,,0.00,meteohub,2013-02-12 11:37:00,
2013-02-12 03:42:00,39.0,36.9,30.27,SE,135,0.0,2.0,92,0.00,,,0.00,meteohub,2013-02-12 11:42:00,
2013-02-12 03:47:00,38.7,36.5,30.27,SE,135,0.0,2.0,92,0.00,,,0.00,meteohub,2013-02-12 11:47:00,
2013-02-12 03:52:00,38.5,36.3,30.27,SE,135,1.0,1.0,92,0.00,,,0.00,meteohub,2013-02-12 11:52:00,
2013-02-12 03:57:00,38.5,36.7,30.28,SE,135,1.0,1.0,93,0.00,,,0.00,meteohub,2013-02-12 11:57:00,
2013-02-12 04:02:00,38.5,36.7,30.28,SE,135,0.0,2.0,93,0.00,,,0.00,meteohub,2013-02-12 12:02:00,
2013-02-12 04:07:00,38.3,36.5,30.28,SE,135,1.0,2.0,93,0.00,,,0.00,meteohub,2013-02-12 12:07:00,
2013-02-12 04:12:00,38.1,36.3,30.28,SE,135,0.0,2.0,93,0.00,,,0.00,meteohub,2013-02-12 12:12:00,
2013-02-12 04:17:00,37.9,36.1,30.28,SE,135,0.0,2.0,93,0.00,,,0.00,meteohub,2013-02-12 12:17:00,
2013-02-12 04:22:00,37.9,36.1,30.28,SE,135,0.0,2.0,93,0.00,,,0.00,meteohub,2013-02-12 12:22:00,
2013-02-12 04:27:00,37.8,36.0,30.29,SE,135,0.0,0.0,93,0.00,,,0.00,meteohub,2013-02-12 12:27:00,
2013-02-12 04:32:00,37.8,36.1,30.29,SE,135,0.0,0.0,94,0.00,,,0.00,meteohub,2013-02-12 12:32:00,
2013-02-12 04:37:00,38.1,36.5,30.29,SE,135,0.0,0.0,94,0.00,,,0.00,meteohub,2013-02-12 12:37:00,
2013-02-12 04:42:00,38.7,36.9,30.29,SE,135,2.0,2.0,93,0.00,,,0.00,meteohub,2013-02-12 12:42:00,
2013-02-12 04:47:00,38.8,36.7,30.29,SE,135,2.0,2.0,92,0.00,,,0.00,meteohub,2013-02-12 12:47:00,
2013-02-12 04:52:00,38.8,36.7,30.30,SE,135,1.0,2.0,92,0.00,,,0.00,meteohub,2013-02-12 12:52:00,
2013-02-12 04:57:00,38.7,36.3,30.29,SE,135,0.0,2.0,91,0.00,,,0.00,meteohub,2013-02-12 12:57:00,
2013-02-12 05:02:00,38.7,36.3,30.30,SE,135,2.0,2.0,91,0.00,,,0.00,meteohub,2013-02-12 13:02:00,
2013-02-12 05:07:00,38.8,36.1,30.30,SE,135,0.0,2.0,90,0.00,,,0.00,meteohub,2013-02-12 13:07:00,
2013-02-12 05:12:00,38.5,35.8,30.30,SE,135,0.0,2.0,90,0.00,,,0.00,meteohub,2013-02-12 13:12:00,
2013-02-12 05:17:00,38.1,35.4,30.30,SE,135,0.0,2.0,90,0.00,,,0.00,meteohub,2013-02-12 13:17:00,
2013-02-12 05:22:00,37.8,35.1,30.30,SE,135,0.0,1.0,90,0.00,,,0.00,meteohub,2013-02-12 13:22:00,
2013-02-12 05:27:00,37.6,34.9,30.30,SE,135,0.0,1.0,90,0.00,,,0.00,meteohub,2013-02-12 13:27:00,
2013-02-12 05:32:00,37.4,34.7,30.30,SE,135,0.0,0.0,90,0.00,,,0.00,meteohub,2013-02-12 13:32:00,
2013-02-12 05:37:00,37.0,34.3,30.30,SE,135,0.0,0.0,90,0.00,,,0.00,meteohub,2013-02-12 13:37:00,
2013-02-12 05:42:00,37.2,34.5,30.30,SE,135,0.0,0.0,90,0.00,,,0.00,meteohub,2013-02-12 13:42:00,
2013-02-12 05:47:00,37.6,34.9,30.31,SE,135,0.0,0.0,90,0.00,,,0.00,meteohub,2013-02-12 13:47:00,
2013-02-12 05:52:00,37.9,35.1,30.30,SE,135,0.0,0.0,89,0.00,,,0.00,meteohub,2013-02-12 13:52:00,
2013-02-12 05:57:00,38.1,34.9,30.31,SE,135,0.0,0.0,88,0.00,,,0.00,meteohub,2013-02-12 13:57:00,
2013-02-12 06:02:00,38.1,34.9,30.31,SE,135,0.0,0.0,88,0.00,,,0.00,meteohub,2013-02-12 14:02:00,
2013-02-12 06:07:00,38.3,35.1,30.31,SE,135,0.0,0.0,88,0.00,,,0.00,meteohub,2013-02-12 14:07:00,
2013-02-12 06:12:00,38.1,34.9,30.31,SE,135,0.0,1.0,88,0.00,,,0.00,meteohub,2013-02-12 14:12:00,
2013-02-12 06:17:00,38.3,35.1,30.32,SE,135,0.0,1.0,88,0.00,,,0.00,meteohub,2013-02-12 14:17:00,
2013-02-12 06:22:00,38.1,34.9,30.32,SE,135,0.0,0.0,88,0.00,,,0.00,meteohub,2013-02-12 14:22:00,
2013-02-12 06:27:00,38.3,35.1,30.31,SE,135,0.0,0.0,88,0.00,,,0.00,meteohub,2013-02-12 14:27:00,
2013-02-12 06:32:00,38.3,34.7,30.32,SE,135,0.0,0.0,87,0.00,,,0.00,meteohub,2013-02-12 14:32:00,
2013-02-12 06:37:00,37.9,34.3,30.32,SE,135,0.0,0.0,87,0.00,,,0.00,meteohub,2013-02-12 14:37:00,
2013-02-12 06:42:00,37.9,34.7,30.32,SE,135,0.0,0.0,88,0.00,,,0.00,meteohub,2013-02-12 14:42:00,
2013-02-12 06:47:00,38.1,34.9,30.33,SE,135,2.0,0.0,88,0.00,,,0.00,meteohub,2013-02-12 14:47:00,
2013-02-12 06:52:00,38.5,34.7,30.33,SE,135,2.0,2.0,86,0.00,,,0.00,meteohub,2013-02-12 14:52:00,
2013-02-12 06:57:00,38.5,34.7,30.33,SE,135,0.0,2.0,86,0.00,,,0.00,meteohub,2013-02-12 14:57:00,
2013-02-12 07:02:00,38.5,34.3,30.33,East,90,3.0,3.0,85,0.00,,,0.00,meteohub,2013-02-12 15:02:00,
2013-02-12 07:07:00,39.0,34.0,30.33,East,90,2.0,4.0,82,0.00,,,0.00,meteohub,2013-02-12 15:07:00,
2013-02-12 07:12:00,39.9,34.5,30.34,East,90,3.0,4.0,81,0.00,,,0.00,meteohub,2013-02-12 15:12:00,
2013-02-12 07:17:00,43.2,35.8,30.34,East,90,4.0,4.0,75,0.00,,,0.00,meteohub,2013-02-12 15:17:00,
2013-02-12 07:22:00,45.0,35.4,30.34,East,90,4.0,4.0,69,0.00,,,0.00,meteohub,2013-02-12 15:22:00,
2013-02-12 07:27:00,46.6,36.1,30.34,East,90,3.0,4.0,67,0.00,,,0.00,meteohub,2013-02-12 15:27:00,
2013-02-12 07:32:00,48.2,36.7,30.35,SE,135,2.0,4.0,64,0.00,,,0.00,meteohub,2013-02-12 15:32:00,
2013-02-12 07:37:00,48.7,36.7,30.35,East,90,2.0,4.0,63,0.00,,,0.00,meteohub,2013-02-12 15:37:00,
2013-02-12 07:42:00,50.9,37.9,30.35,East,90,2.0,4.0,61,0.00,,,0.00,meteohub,2013-02-12 15:42:00,
2013-02-12 07:47:00,51.4,37.2,30.35,East,90,3.0,4.0,58,0.00,,,0.00,meteohub,2013-02-12 15:47:00,
2013-02-12 07:52:00,52.2,37.8,30.35,East,90,2.0,3.0,58,0.00,,,0.00,meteohub,2013-02-12 15:52:00,
2013-02-12 07:57:00,52.3,37.6,30.35,East,90,5.0,5.0,57,0.00,,,0.00,meteohub,2013-02-12 15:57:00,
2013-02-12 08:02:00,51.4,37.2,30.35,East,90,6.0,6.0,58,0.00,,,0.00,meteohub,2013-02-12 16:02:00,
2013-02-12 08:07:00,51.3,38.3,30.36,East,90,4.0,7.0,61,0.00,,,0.00,meteohub,2013-02-12 16:07:00,
2013-02-12 08:12:00,51.4,37.9,30.36,East,90,6.0,7.0,60,0.00,,,0.00,meteohub,2013-02-12 16:12:00,
2013-02-12 08:17:00,52.7,38.8,30.36,SE,135,2.0,7.0,59,0.00,,,0.00,meteohub,2013-02-12 16:17:00,
2013-02-12 08:22:00,53.8,37.9,30.36,SE,135,2.0,6.0,55,0.00,,,0.00,meteohub,2013-02-12 16:22:00,
2013-02-12 08:27:00,54.5,38.1,30.37,SE,135,3.0,6.0,54,0.00,,,0.00,meteohub,2013-02-12 16:27:00,
2013-02-12 08:32:00,54.5,36.7,30.36,East,90,5.0,5.0,51,0.00,,,0.00,meteohub,2013-02-12 16:32:00,
2013-02-12 08:37:00,54.0,37.2,30.36,ESE,113,5.0,7.0,53,0.00,,,0.00,meteohub,2013-02-12 16:37:00,
2013-02-12 08:42:00,54.7,38.3,30.37,SE,135,4.0,7.0,54,0.00,,,0.00,meteohub,2013-02-12 16:42:00,
2013-02-12 08:47:00,55.2,38.3,30.37,East,90,4.0,7.0,53,0.00,,,0.00,meteohub,2013-02-12 16:47:00,
2013-02-12 08:51:00,55.9,38.1,30.37,East,90,4.0,5.0,51,0.00,,,0.00,meteohub,2013-02-12 16:51:00,
2013-02-12 08:57:00,56.3,37.4,30.37,East,90,3.0,6.0,49,0.00,,,0.00,meteohub,2013-02-12 16:57:00,
2013-02-12 09:02:00,56.5,37.0,30.37,East,90,4.0,6.0,48,0.00,,,0.00,meteohub,2013-02-12 17:02:00,
2013-02-12 09:07:00,56.8,37.4,30.38,East,90,4.0,6.0,48,0.00,,,0.00,meteohub,2013-02-12 17:07:00,
2013-02-12 09:12:00,57.4,37.9,30.38,SSE,158,4.0,6.0,48,0.00,,,0.00,meteohub,2013-02-12 17:12:00,
2013-02-12 09:17:00,57.9,37.2,30.37,SE,135,4.0,6.0,46,0.00,,,0.00,meteohub,2013-02-12 17:17:00,
2013-02-12 09:22:00,58.3,37.0,30.38,East,90,5.0,5.0,45,0.00,,,0.00,meteohub,2013-02-12 17:22:00,
2013-02-12 09:27:00,58.1,37.4,30.38,ESE,113,3.0,5.0,46,0.00,,,0.00,meteohub,2013-02-12 17:27:00,
2013-02-12 09:32:00,58.5,37.8,30.38,East,90,4.0,6.0,46,0.00,,,0.00,meteohub,2013-02-12 17:32:00,
2013-02-12 09:37:00,58.8,38.1,30.37,East,90,4.0,6.0,46,0.00,,,0.00,meteohub,2013-02-12 17:37:00,
2013-02-12 09:42:00,59.5,38.7,30.37,SE,135,2.0,6.0,46,0.00,,,0.00,meteohub,2013-02-12 17:42:00,
2013-02-12 09:47:00,60.3,39.4,30.37,East,90,1.0,4.0,46,0.00,,,0.00,meteohub,2013-02-12 17:47:00,
2013-02-12 09:52:00,61.3,39.7,30.37,South,180,1.0,4.0,45,0.00,,,0.00,meteohub,2013-02-12 17:52:00,
2013-02-12 09:57:00,61.5,41.7,30.37,East,90,3.0,4.0,48,0.00,,,0.00,meteohub,2013-02-12 17:57:00,
2013-02-12 10:02:00,61.9,43.0,30.37,South,180,3.0,4.0,50,0.00,,,0.00,meteohub,2013-02-12 18:02:00,
2013-02-12 10:07:00,61.5,43.7,30.37,NW,315,4.0,4.0,52,0.00,,,0.00,meteohub,2013-02-12 18:07:00,
2013-02-12 10:12:00,60.4,44.2,30.37,SW,225,4.0,6.0,55,0.00,,,0.00,meteohub,2013-02-12 18:12:00,
2013-02-12 10:17:00,59.7,44.4,30.37,West,270,3.0,6.0,57,0.00,,,0.00,meteohub,2013-02-12 18:17:00,
2013-02-12 10:22:00,60.1,46.2,30.37,North,0,4.0,7.0,60,0.00,,,0.00,meteohub,2013-02-12 18:22:00,
2013-02-12 10:27:00,60.1,45.7,30.37,West,270,2.0,7.0,59,0.00,,,0.00,meteohub,2013-02-12 18:27:00,
2013-02-12 10:32:00,60.4,46.4,30.37,WNW,293,4.0,5.0,60,0.00,,,0.00,meteohub,2013-02-12 18:32:00,
2013-02-12 10:37:00,60.1,46.9,30.37,West,270,4.0,6.0,62,0.00,,,0.00,meteohub,2013-02-12 18:37:00,
2013-02-12 10:42:00,60.1,46.6,30.37,NW,315,8.0,8.0,61,0.00,,,0.00,meteohub,2013-02-12 18:42:00,
2013-02-12 10:47:00,60.1,46.9,30.37,WNW,293,4.0,8.0,62,0.00,,,0.00,meteohub,2013-02-12 18:47:00,
2013-02-12 10:52:00,60.3,46.8,30.36,NW,315,3.0,8.0,61,0.00,,,0.00,meteohub,2013-02-12 18:52:00,
2013-02-12 10:57:00,60.4,46.4,30.37,NW,315,3.0,8.0,60,0.00,,,0.00,meteohub,2013-02-12 18:57:00,
2013-02-12 11:02:00,61.7,47.3,30.36,SW,225,2.0,7.0,59,0.00,,,0.00,meteohub,2013-02-12 19:02:00,
2013-02-12 11:07:00,62.6,46.8,30.36,South,180,2.0,7.0,56,0.00,,,0.00,meteohub,2013-02-12 19:07:00,
2013-02-12 11:12:00,63.1,47.1,30.35,West,270,9.0,9.0,56,0.00,,,0.00,meteohub,2013-02-12 19:12:00,
2013-02-12 11:17:00,63.7,48.2,30.35,NW,315,5.0,9.0,57,0.00,,,0.00,meteohub,2013-02-12 19:17:00,
2013-02-12 11:22:00,63.5,47.5,30.35,WNW,293,8.0,9.0,56,0.00,,,0.00,meteohub,2013-02-12 19:22:00,
2013-02-12 11:27:00,62.8,48.2,30.35,NW,315,8.0,9.0,59,0.00,,,0.00,meteohub,2013-02-12 19:27:00,
2013-02-12 11:32:00,62.8,48.7,30.35,SW,225,3.0,8.0,60,0.00,,,0.00,meteohub,2013-02-12 19:32:00,
2013-02-12 11:36:00,63.1,48.6,30.34,NNE,23,4.0,8.0,59,0.00,,,0.00,meteohub,2013-02-12 19:36:00,
2013-02-12 11:41:00,63.5,48.4,30.34,North,0,9.0,9.0,58,0.00,,,0.00,meteohub,2013-02-12 19:41:00,
2013-02-12 11:46:00,63.7,48.6,30.34,WNW,293,6.0,9.0,58,0.00,,,0.00,meteohub,2013-02-12 19:46:00,
2013-02-12 11:52:00,63.9,48.4,30.33,NW,315,5.0,9.0,57,0.00,,,0.00,meteohub,2013-02-12 19:52:00,
2013-02-12 11:57:00,63.7,48.2,30.34,WNW,293,5.0,9.0,57,0.00,,,0.00,meteohub,2013-02-12 19:57:00,
2013-02-12 12:02:00,63.7,48.6,30.33,West,270,4.0,8.0,58,0.00,,,0.00,meteohub,2013-02-12 20:02:00,
2013-02-12 12:07:00,63.9,47.8,30.32,West,270,6.0,8.0,56,0.00,,,0.00,meteohub,2013-02-12 20:07:00,
2013-02-12 12:12:00,63.9,47.3,30.32,NW,315,6.0,9.0,55,0.00,,,0.00,meteohub,2013-02-12 20:12:00,
2013-02-12 12:17:00,63.1,48.6,30.32,West,270,6.0,9.0,59,0.00,,,0.00,meteohub,2013-02-12 20:17:00,
2013-02-12 12:22:00,62.6,47.7,30.32,WNW,293,11.0,11.0,58,0.00,,,0.00,meteohub,2013-02-12 20:22:00,
2013-02-12 12:27:00,62.4,47.5,30.32,NW,315,11.0,11.0,58,0.00,,,0.00,meteohub,2013-02-12 20:27:00,
2013-02-12 12:32:00,62.8,47.3,30.32,WNW,293,8.0,11.0,57,0.00,,,0.00,meteohub,2013-02-12 20:32:00,
2013-02-12 12:37:00,63.0,46.9,30.31,West,270,8.0,11.0,56,0.00,,,0.00,meteohub,2013-02-12 20:37:00,
2013-02-12 12:42:00,63.1,47.1,30.31,West,270,11.0,11.0,56,0.00,,,0.00,meteohub,2013-02-12 20:42:00,
2013-02-12 12:47:00,63.0,46.6,30.31,West,270,8.0,11.0,55,0.00,,,0.00,meteohub,2013-02-12 20:47:00,
2013-02-12 12:51:00,63.1,47.1,30.31,West,270,11.0,11.0,56,0.00,,,0.00,meteohub,2013-02-12 20:51:00,
2013-02-12 12:57:00,62.6,46.8,30.30,NW,315,10.0,12.0,56,0.00,,,0.00,meteohub,2013-02-12 20:57:00,
2013-02-12 13:02:00,62.4,46.0,30.30,NW,315,10.0,12.0,55,0.00,,,0.00,meteohub,2013-02-12 21:02:00,
2013-02-12 13:07:00,62.4,47.5,30.30,NW,315,8.0,11.0,58,0.00,,,0.00,meteohub,2013-02-12 21:07:00,
2013-02-12 13:12:00,62.1,44.8,30.30,NW,315,9.0,11.0,53,0.00,,,0.00,meteohub,2013-02-12 21:12:00,
2013-02-12 13:17:00,61.7,45.3,30.30,NW,315,11.0,11.0,55,0.00,,,0.00,meteohub,2013-02-12 21:17:00,
2013-02-12 13:22:00,61.7,46.4,30.30,WNW,293,9.0,11.0,57,0.00,,,0.00,meteohub,2013-02-12 21:22:00,
2013-02-12 13:27:00,61.9,46.9,30.29,West,270,11.0,11.0,58,0.00,,,0.00,meteohub,2013-02-12 21:27:00,
2013-02-12 13:32:00,61.5,46.2,30.29,NW,315,6.0,11.0,57,0.00,,,0.00,meteohub,2013-02-12 21:32:00,
2013-02-12 13:37:00,62.1,46.2,30.29,NW,315,11.0,11.0,56,0.00,,,0.00,meteohub,2013-02-12 21:37:00,
2013-02-12 13:42:00,61.9,44.6,30.29,NW,315,8.0,12.0,53,0.00,,,0.00,meteohub,2013-02-12 21:42:00,
2013-02-12 13:47:00,62.1,45.7,30.29,NE,45,10.0,12.0,55,0.00,,,0.00,meteohub,2013-02-12 21:47:00,
2013-02-12 13:52:00,61.7,41.2,30.29,NW,315,9.0,12.0,47,0.00,,,0.00,meteohub,2013-02-12 21:52:00,
2013-02-12 13:57:00,61.7,46.8,30.28,NNW,338,9.0,11.0,58,0.00,,,0.00,meteohub,2013-02-12 21:57:00,
2013-02-12 14:02:00,62.1,47.1,30.28,West,270,7.0,11.0,58,0.00,,,0.00,meteohub,2013-02-12 22:02:00,
2013-02-12 14:07:00,61.5,46.6,30.28,West,270,10.0,12.0,58,0.00,,,0.00,meteohub,2013-02-12 22:07:00,
2013-02-12 14:12:00,61.5,46.2,30.28,West,270,9.0,12.0,57,0.00,,,0.00,meteohub,2013-02-12 22:12:00,
2013-02-12 14:17:00,61.3,46.4,30.28,West,270,11.0,12.0,58,0.00,,,0.00,meteohub,2013-02-12 22:17:00,
2013-02-12 14:22:00,61.5,45.7,30.28,West,270,8.0,14.0,56,0.00,,,0.00,meteohub,2013-02-12 22:22:00,
2013-02-12 14:27:00,61.5,43.7,30.27,West,270,11.0,14.0,52,0.00,,,0.00,meteohub,2013-02-12 22:27:00,
2013-02-12 14:32:00,61.9,45.1,30.27,WNW,293,8.0,14.0,54,0.00,,,0.00,meteohub,2013-02-12 22:32:00,
2013-02-12 14:37:00,62.1,43.2,30.27,NW,315,11.0,13.0,50,0.00,,,0.00,meteohub,2013-02-12 22:37:00,
2013-02-12 14:42:00,61.9,42.4,30.27,NW,315,11.0,13.0,49,0.00,,,0.00,meteohub,2013-02-12 22:42:00,
2013-02-12 14:47:00,61.7,42.8,30.27,West,270,9.0,12.0,50,0.00,,,0.00,meteohub,2013-02-12 22:47:00,
2013-02-12 14:52:00,62.1,43.7,30.27,West,270,9.0,14.0,51,0.00,,,0.00,meteohub,2013-02-12 22:52:00,
2013-02-12 14:57:00,62.1,44.8,30.27,NW,315,11.0,14.0,53,0.00,,,0.00,meteohub,2013-02-12 22:57:00,
2013-02-12 15:02:00,61.9,44.6,30.27,West,270,13.0,14.0,53,0.00,,,0.00,meteohub,2013-02-12 23:02:00,
2013-02-12 15:07:00,61.5,44.2,30.27,WNW,293,12.0,13.0,53,0.00,,,0.00,meteohub,2013-02-12 23:07:00,
2013-02-12 15:12:00,61.7,42.3,30.27,West,270,11.0,13.0,49,0.00,,,0.00,meteohub,2013-02-12 23:12:00,
2013-02-12 15:17:00,62.1,43.7,30.27,NW,315,10.0,13.0,51,0.00,,,0.00,meteohub,2013-02-12 23:17:00,
2013-02-12 15:22:00,62.1,43.2,30.27,NW,315,8.0,13.0,50,0.00,,,0.00,meteohub,2013-02-12 23:22:00,
2013-02-12 15:27:00,62.1,42.1,30.27,West,270,12.0,12.0,48,0.00,,,0.00,meteohub,2013-02-12 23:27:00,
2013-02-12 15:32:00,61.7,42.3,30.27,NW,315,8.0,13.0,49,0.00,,,0.00,meteohub,2013-02-12 23:32:00,
2013-02-12 15:37:00,61.9,42.4,30.27,NW,315,10.0,13.0,49,0.00,,,0.00,meteohub,2013-02-12 23:37:00,
2013-02-12 15:42:00,62.6,42.1,30.27,NW,315,10.0,13.0,47,0.00,,,0.00,meteohub,2013-02-12 23:42:00,
2013-02-12 15:47:00,62.2,43.3,30.26,WNW,293,11.0,13.0,50,0.00,,,0.00,meteohub,2013-02-12 23:47:00,
2013-02-12 15:52:00,62.2,42.3,30.27,West,270,10.0,11.0,48,0.00,,,0.00,meteohub,2013-02-12 23:52:00,
2013-02-12 15:57:00,62.1,39.9,30.27,WNW,293,13.0,13.0,44,0.00,,,0.00,meteohub,2013-02-12 23:57:00,
2013-02-12 16:02:00,62.1,39.4,30.27,NW,315,8.0,13.0,43,0.00,,,0.00,meteohub,2013-02-13 00:02:00,
2013-02-12 16:07:00,62.4,41.4,30.26,West,270,7.0,13.0,46,0.00,,,0.00,meteohub,2013-02-13 00:07:00,
2013-02-12 16:12:00,62.6,40.5,30.26,West,270,6.0,13.0,44,0.00,,,0.00,meteohub,2013-02-13 00:12:00,
2013-02-12 16:17:00,62.6,39.7,30.26,NW,315,6.0,11.0,43,0.00,,,0.00,meteohub,2013-02-13 00:17:00,
2013-02-12 16:22:00,62.2,38.3,30.26,WNW,293,6.0,7.0,41,0.00,,,0.00,meteohub,2013-02-13 00:22:00,
2013-02-12 16:27:00,61.9,40.8,30.26,West,270,7.0,10.0,46,0.00,,,0.00,meteohub,2013-02-13 00:27:00,
2013-02-12 16:32:00,61.7,43.9,30.26,NW,315,7.0,10.0,52,0.00,,,0.00,meteohub,2013-02-13 00:32:00,
2013-02-12 16:37:00,61.7,45.0,30.26,NW,315,4.0,10.0,54,0.00,,,0.00,meteohub,2013-02-13 00:37:00,
2013-02-12 16:42:00,62.1,44.2,30.26,NW,315,5.0,9.0,52,0.00,,,0.00,meteohub,2013-02-13 00:42:00,
2013-02-12 16:47:00,62.1,42.1,30.26,North,0,7.0,8.0,48,0.00,,,0.00,meteohub,2013-02-13 00:47:00,
2013-02-12 16:52:00,61.3,46.9,30.26,NW,315,8.0,8.0,59,0.00,,,0.00,meteohub,2013-02-13 00:52:00,
2013-02-12 16:57:00,61.0,46.6,30.26,WNW,293,3.0,9.0,59,0.00,,,0.00,meteohub,2013-02-13 00:57:00,
2013-02-12 17:02:00,61.5,43.2,30.26,North,0,3.0,9.0,51,0.00,,,0.00,meteohub,2013-02-13 01:02:00,
2013-02-12 17:07:00,61.2,43.3,30.26,NW,315,2.0,9.0,52,0.00,,,0.00,meteohub,2013-02-13 01:07:00,
2013-02-12 17:12:00,60.3,43.5,30.27,NW,315,2.0,6.0,54,0.00,,,0.00,meteohub,2013-02-13 01:12:00,
2013-02-12 17:17:00,59.5,44.2,30.26,NW,315,2.0,5.0,57,0.00,,,0.00,meteohub,2013-02-13 01:17:00,
2013-02-12 17:22:00,59.0,44.2,30.27,NW,315,2.0,4.0,58,0.00,,,0.00,meteohub,2013-02-13 01:22:00,
2013-02-12 17:27:00,58.3,43.2,30.27,North,0,2.0,4.0,57,0.00,,,0.00,meteohub,2013-02-13 01:27:00,
2013-02-12 17:32:00,57.4,42.3,30.27,North,0,2.0,4.0,57,0.00,,,0.00,meteohub,2013-02-13 01:32:00,
2013-02-12 17:37:00,56.8,41.7,30.27,North,0,2.0,4.0,57,0.00,,,0.00,meteohub,2013-02-13 01:37:00,
2013-02-12 17:42:00,56.7,41.5,30.26,North,0,2.0,3.0,57,0.00,,,0.00,meteohub,2013-02-13 01:42:00,
2013-02-12 17:47:00,56.8,41.7,30.27,North,0,2.0,3.0,57,0.00,,,0.00,meteohub,2013-02-13 01:47:00,
2013-02-12 17:52:00,56.8,41.7,30.27,NW,315,3.0,3.0,57,0.00,,,0.00,meteohub,2013-02-13 01:52:00,
2013-02-12 17:57:00,56.7,41.2,30.27,NW,315,4.0,4.0,56,0.00,,,0.00,meteohub,2013-02-13 01:57:00,
2013-02-12 18:02:00,56.3,41.7,30.27,NW,315,4.0,5.0,58,0.00,,,0.00,meteohub,2013-02-13 02:02:00,
2013-02-12 18:08:00,55.9,42.3,30.27,NW,315,2.0,5.0,60,0.00,,,0.00,meteohub,2013-02-13 02:08:00,
2013-02-12 18:13:00,55.4,42.6,30.27,NW,315,3.0,5.0,62,0.00,,,0.00,meteohub,2013-02-13 02:13:00,
2013-02-12 18:18:00,55.4,43.0,30.27,NW,315,3.0,4.0,63,0.00,,,0.00,meteohub,2013-02-13 02:18:00,
2013-02-12 18:23:00,55.0,42.6,30.27,NW,315,2.0,4.0,63,0.00,,,0.00,meteohub,2013-02-13 02:23:00,
2013-02-12 18:28:00,55.0,44.6,30.27,West,270,3.0,4.0,68,0.00,,,0.00,meteohub,2013-02-13 02:28:00,
2013-02-12 18:33:00,54.7,44.8,30.27,West,270,3.0,4.0,69,0.00,,,0.00,meteohub,2013-02-13 02:33:00,
2013-02-12 18:38:00,54.7,45.5,30.27,WNW,293,4.0,4.0,71,0.00,,,0.00,meteohub,2013-02-13 02:38:00,
2013-02-12 18:43:00,54.5,45.7,30.27,NW,315,3.0,4.0,72,0.00,,,0.00,meteohub,2013-02-13 02:43:00,
2013-02-12 18:48:00,54.3,45.5,30.27,NW,315,2.0,4.0,72,0.00,,,0.00,meteohub,2013-02-13 02:48:00,
2013-02-12 18:53:00,54.1,46.0,30.28,NW,315,2.0,4.0,74,0.00,,,0.00,meteohub,2013-02-13 02:53:00,
2013-02-12 18:58:00,54.1,46.0,30.27,NW,315,2.0,4.0,74,0.00,,,0.00,meteohub,2013-02-13 02:58:00,
2013-02-12 19:03:00,54.0,45.9,30.27,NW,315,0.0,4.0,74,0.00,,,0.00,meteohub,2013-02-13 03:03:00,
2013-02-12 19:08:00,53.6,45.1,30.28,NW,315,0.0,4.0,73,0.00,,,0.00,meteohub,2013-02-13 03:08:00,
2013-02-12 19:13:00,52.9,44.4,30.28,NW,315,0.0,3.0,73,0.00,,,0.00,meteohub,2013-02-13 03:13:00,
2013-02-12 19:18:00,52.2,44.1,30.28,NW,315,0.0,2.0,74,0.00,,,0.00,meteohub,2013-02-13 03:18:00,
2013-02-12 19:23:00,51.6,43.9,30.28,NW,315,0.0,0.0,75,0.00,,,0.00,meteohub,2013-02-13 03:23:00,
2013-02-12 19:28:00,51.4,44.8,30.28,NW,315,0.0,0.0,78,0.00,,,0.00,meteohub,2013-02-13 03:28:00,
2013-02-12 19:33:00,51.4,45.5,30.28,NW,315,0.0,0.0,80,0.00,,,0.00,meteohub,2013-02-13 03:33:00,
2013-02-12 19:38:00,51.4,45.9,30.29,NW,315,2.0,0.0,81,0.08,,,0.08,meteohub,2013-02-13 03:38:00,
2013-02-12 19:43:00,51.3,45.3,30.29,NW,315,0.0,2.0,80,0.08,,,0.08,meteohub,2013-02-13 03:43:00,
2013-02-12 19:48:00,51.1,45.5,30.29,NW,315,0.0,2.0,81,0.08,,,0.08,meteohub,2013-02-13 03:48:00,
2013-02-12 19:53:00,51.1,45.5,30.28,NW,315,0.0,2.0,81,0.08,,,0.08,meteohub,2013-02-13 03:53:00,
2013-02-12 19:58:00,50.5,44.6,30.29,NW,315,0.0,2.0,80,0.08,,,0.08,meteohub,2013-02-13 03:58:00,
2013-02-12 20:03:00,50.2,45.0,30.29,NW,315,0.0,2.0,82,0.08,,,0.08,meteohub,2013-02-13 04:03:00,
2013-02-12 20:08:00,50.5,45.9,30.29,NW,315,0.0,1.0,84,0.08,,,0.08,meteohub,2013-02-13 04:08:00,
2013-02-12 20:13:00,50.4,45.3,30.29,NW,315,0.0,1.0,83,0.08,,,0.08,meteohub,2013-02-13 04:13:00,
2013-02-12 20:18:00,49.8,44.6,30.29,NW,315,0.0,1.0,82,0.08,,,0.08,meteohub,2013-02-13 04:18:00,
2013-02-12 20:23:00,49.8,44.8,30.29,NW,315,0.0,0.0,83,0.08,,,0.08,meteohub,2013-02-13 04:23:00,
2013-02-12 20:28:00,49.5,44.8,30.29,NW,315,0.0,0.0,84,0.08,,,0.08,meteohub,2013-02-13 04:28:00,
2013-02-12 20:33:00,49.5,45.5,30.29,NW,315,0.0,0.0,86,0.00,,,0.08,meteohub,2013-02-13 04:33:00,
2013-02-12 20:38:00,49.5,45.5,30.30,NW,315,0.0,0.0,86,0.00,,,0.08,meteohub,2013-02-13 04:38:00,
2013-02-12 20:43:00,49.5,45.5,30.30,NW,315,0.0,0.0,86,0.00,,,0.08,meteohub,2013-02-13 04:43:00,
2013-02-12 20:48:00,48.9,44.6,30.30,NW,315,0.0,0.0,85,0.00,,,0.08,meteohub,2013-02-13 04:48:00,
2013-02-12 20:53:00,48.6,44.6,30.29,NW,315,0.0,0.0,86,0.00,,,0.08,meteohub,2013-02-13 04:53:00,
2013-02-12 20:58:00,48.2,44.6,30.30,NW,315,0.0,0.0,87,0.00,,,0.08,meteohub,2013-02-13 04:58:00,
2013-02-12 21:00:00,48.2,44.6,30.30,NW,315,0.0,0.0,87,0.00,,,0.08,meteohub,2013-02-13 05:00:00,
2013-02-12 21:05:00,48.0,44.6,30.30,NW,315,0.0,0.0,88,0.00,,,0.08,meteohub,2013-02-13 05:05:00,
2013-02-12 21:10:00,48.0,44.6,30.30,NW,315,0.0,0.0,88,0.00,,,0.08,meteohub,2013-02-13 05:10:00,
2013-02-12 21:15:00,48.4,45.0,30.30,NW,315,0.0,0.0,88,0.00,,,0.08,meteohub,2013-02-13 05:15:00,
2013-02-12 21:20:00,48.2,44.8,30.30,NW,315,0.0,0.0,88,0.00,,,0.08,meteohub,2013-02-13 05:20:00,
2013-02-12 21:25:00,47.7,44.2,30.30,NW,315,0.0,0.0,88,0.00,,,0.08,meteohub,2013-02-13 05:25:00,
2013-02-12 21:30:00,47.3,43.9,30.30,NW,315,0.0,0.0,88,0.00,,,0.08,meteohub,2013-02-13 05:30:00,
2013-02-12 21:35:00,46.9,43.9,30.30,NW,315,0.0,0.0,89,0.00,,,0.08,meteohub,2013-02-13 05:35:00,
2013-02-12 21:40:00,46.8,43.7,30.30,NW,315,0.0,0.0,89,0.00,,,0.08,meteohub,2013-02-13 05:40:00,
2013-02-12 21:45:00,46.6,43.5,30.30,NW,315,0.0,0.0,89,0.00,,,0.08,meteohub,2013-02-13 05:45:00,
2013-02-12 21:50:00,46.0,43.3,30.30,NW,315,0.0,0.0,90,0.00,,,0.08,meteohub,2013-02-13 05:50:00,
2013-02-12 21:55:00,46.0,43.5,30.30,NW,315,0.0,0.0,91,0.00,,,0.08,meteohub,2013-02-13 05:55:00,
2013-02-12 22:00:00,46.2,44.1,30.30,NW,315,0.0,0.0,92,0.00,,,0.08,meteohub,2013-02-13 06:00:00,
2013-02-12 22:05:00,46.2,44.1,30.30,NW,315,0.0,0.0,92,0.00,,,0.08,meteohub,2013-02-13 06:05:00,
2013-02-12 22:10:00,46.2,44.1,30.30,NW,315,0.0,0.0,92,0.00,,,0.08,meteohub,2013-02-13 06:10:00,
2013-02-12 22:15:00,46.2,44.1,30.30,NW,315,0.0,0.0,92,0.00,,,0.08,meteohub,2013-02-13 06:15:00,
2013-02-12 22:20:00,46.0,43.9,30.29,NW,315,0.0,0.0,92,0.00,,,0.08,meteohub,2013-02-13 06:20:00,
2013-02-12 22:25:00,45.9,43.7,30.29,NW,315,0.0,0.0,92,0.00,,,0.08,meteohub,2013-02-13 06:25:00,
2013-02-12 22:30:00,45.7,43.7,30.29,NW,315,0.0,0.0,93,0.00,,,0.08,meteohub,2013-02-13 06:30:00,
2013-02-12 22:35:00,45.9,43.9,30.29,NW,315,0.0,0.0,93,0.00,,,0.08,meteohub,2013-02-13 06:35:00,
2013-02-12 22:40:00,45.7,43.7,30.29,NW,315,0.0,0.0,93,0.00,,,0.08,meteohub,2013-02-13 06:40:00,
2013-02-12 22:45:00,45.5,43.5,30.29,NW,315,0.0,0.0,93,0.00,,,0.08,meteohub,2013-02-13 06:45:00,
2013-02-12 22:50:00,45.5,43.5,30.29,NW,315,0.0,0.0,93,0.00,,,0.08,meteohub,2013-02-13 06:50:00,
2013-02-12 22:55:00,45.0,43.0,30.29,NW,315,0.0,0.0,93,0.00,,,0.08,meteohub,2013-02-13 06:55:00,
2013-02-12 23:01:00,45.1,43.9,30.29,East,90,0.0,2.0,95,0.00,,,0.08,meteohub,2013-02-13 07:01:00,
2013-02-12 23:06:00,45.0,43.7,30.29,East,90,0.0,2.0,95,0.00,,,0.08,meteohub,2013-02-13 07:06:00,
2013-02-12 23:11:00,45.0,43.7,30.30,East,90,1.0,2.0,95,0.00,,,0.08,meteohub,2013-02-13 07:11:00,
2013-02-12 23:16:00,45.1,44.1,30.29,East,90,0.0,2.0,96,0.00,,,0.08,meteohub,2013-02-13 07:16:00,
2013-02-12 23:21:00,45.1,44.1,30.29,East,90,1.0,2.0,96,0.00,,,0.08,meteohub,2013-02-13 07:21:00,
2013-02-12 23:26:00,44.8,43.5,30.29,East,90,0.0,2.0,95,0.00,,,0.08,meteohub,2013-02-13 07:26:00,
2013-02-12 23:31:00,44.8,43.7,30.29,East,90,2.0,2.0,96,0.00,,,0.08,meteohub,2013-02-13 07:31:00,
2013-02-12 23:36:00,44.8,43.7,30.29,East,90,0.0,2.0,96,0.00,,,0.08,meteohub,2013-02-13 07:36:00,
2013-02-12 23:41:00,44.6,43.5,30.29,East,90,2.0,2.0,96,0.00,,,0.08,meteohub,2013-02-13 07:41:00,
2013-02-12 23:46:00,44.1,43.0,30.29,East,90,0.0,2.0,96,0.00,,,0.08,meteohub,2013-02-13 07:46:00,
2013-02-12 23:51:00,44.1,43.0,30.29,East,90,2.0,2.0,96,0.00,,,0.08,meteohub,2013-02-13 07:51:00,
2013-02-12 23:56:00,43.9,42.8,30.29,East,90,0.0,2.0,96,0.00,,,0.08,meteohub,2013-02-13 07:56:00,